Time;durP1;ratioP1;P1;durP2;ratioP2;P2;SDS_P1;SDS_P2;PMS_P1;PMS_P2;Temp;Humidity;BMP_temperature;BMP_pressure;BME280_temperature;BME280_humidity;BME280_pressure;Samples;Min_cycle;Max_cycle;Signal;HPM_P1;HPM_P2
2024/02/10 00:02:16;;;;;;;38.60;22.85;;;;;;;;;;5094519;28;20024;-65
2024/02/10 00:04:41;;;;;;;36.25;21.42;;;;;;;;;;5095048;28;20035;-65
2024/02/10 00:07:06;;;;;;;36.00;21.55;;;;;;;;;;5094752;28;20426;-65
2024/02/10 00:09:32;;;;;;;32.00;21.10;;;;;;;;;;5094681;28;20026;-66
2024/02/10 00:11:58;;;;;;;34.42;22.40;;;;;;;;;;5094594;28;20043;-65
2024/02/10 00:14:23;;;;;;;39.97;25.08;;;;;;;;;;5076842;28;20355;-67
2024/02/10 00:16:50;;;;;;;40.72;26.17;;;;;;;;;;5094268;28;20519;-67
2024/02/10 00:19:17;;;;;;;44.90;29.67;;;;;;;;;;5094232;28;20047;-67
2024/02/10 00:21:43;;;;;;;33.72;20.67;;;;;;;;;;5094194;28;20469;-67
2024/02/10 00:24:11;;;;;;;36.90;25.35;;;;;;;;;;5094192;28;20088;-66
2024/02/10 00:26:37;;;;;;;34.42;22.38;;;;;;;;;;5094086;28;20107;-66
2024/02/10 00:29:03;;;;;;;37.60;21.77;;;;;;;;;;5075249;28;20016;-66
2024/02/10 00:31:29;;;;;;;30.92;19.33;;;;;;;;;;5094007;28;20063;-67
2024/02/10 00:33:56;;;;;;;30.27;18.90;;;;;;;;;;5094301;28;20028;-67
2024/02/10 00:36:21;;;;;;;28.20;18.20;;;;;;;;;;5075822;28;20032;-67
2024/02/10 00:38:48;;;;;;;25.30;16.88;;;;;;;;;;5093977;28;20448;-66
2024/02/10 00:41:16;;;;;;;28.52;18.58;;;;;;;;;;5076076;28;20140;-67
2024/02/10 00:43:42;;;;;;;39.17;25.42;;;;;;;;;;5094216;28;20060;-67
2024/02/10 00:46:09;;;;;;;114.82;70.90;;;;;;;;;;5076158;28;20394;-66
2024/02/10 00:48:37;;;;;;;116.82;75.88;;;;;;;;;;5075903;28;20549;-66
2024/02/10 00:51:04;;;;;;;63.90;41.85;;;;;;;;;;5094025;28;20081;-66
2024/02/10 00:53:30;;;;;;;27.10;17.63;;;;;;;;;;5093753;28;20527;-66
2024/02/10 00:55:55;;;;;;;43.15;28.88;;;;;;;;;;5093746;28;20023;-65
2024/02/10 00:58:21;;;;;;;101.90;68.28;;;;;;;;;;5093692;28;20028;-64
2024/02/10 01:00:46;;;;;;;110.35;72.97;;;;;;;;;;5093982;28;20371;-64
2024/02/10 01:03:13;;;;;;;65.82;43.90;;;;;;;;;;5093717;28;20464;-64
2024/02/10 01:05:40;;;;;;;84.50;55.00;;;;;;;;;;5094003;28;20386;-64
2024/02/10 01:08:05;;;;;;;62.33;37.25;;;;;;;;;;5093931;28;20020;-64
2024/02/10 01:10:31;;;;;;;39.00;24.92;;;;;;;;;;5094129;28;20492;-64
2024/02/10 01:13:03;;;;;;;44.35;28.80;;;;;;;;;;5093893;28;20105;-64
2024/02/10 01:15:32;;;;;;;26.88;16.88;;;;;;;;;;5094160;28;20024;-64
2024/02/10 01:18:01;;;;;;;25.95;15.05;;;;;;;;;;5075501;28;20113;-64
2024/02/10 01:20:32;;;;;;;24.85;14.32;;;;;;;;;;5113887;22;20048;-67
2024/02/10 01:22:59;;;;;;;32.90;21.00;;;;;;;;;;5108152;22;20082;-61
2024/02/10 01:25:24;;;;;;;22.88;14.30;;;;;;;;;;5154345;22;20058;-67
2024/02/10 01:27:50;;;;;;;18.85;12.23;;;;;;;;;;5132980;22;20056;-68
2024/02/10 01:30:19;;;;;;;18.92;11.35;;;;;;;;;;5125442;22;20050;-67
2024/02/10 01:32:45;;;;;;;17.77;11.82;;;;;;;;;;5122671;22;20047;-65
2024/02/10 01:35:10;;;;;;;15.65;12.13;;;;;;;;;;5113747;28;20077;-65
2024/02/10 01:37:38;;;;;;;17.35;11.77;;;;;;;;;;5114012;28;20051;-66
2024/02/10 01:40:09;;;;;;;14.20;10.05;;;;;;;;;;5115663;28;20023;-65
2024/02/10 01:42:38;;;;;;;13.23;9.35;;;;;;;;;;5117965;28;20377;-64
2024/02/10 01:45:07;;;;;;;14.73;9.85;;;;;;;;;;5117860;28;20059;-67
2024/02/10 01:47:36;;;;;;;14.15;9.60;;;;;;;;;;5099221;28;20126;-67
2024/02/10 01:50:01;;;;;;;12.07;8.93;;;;;;;;;;5099130;28;20038;-67
2024/02/10 01:52:28;;;;;;;14.23;9.48;;;;;;;;;;5117751;28;20028;-66
2024/02/10 01:54:53;;;;;;;13.02;9.90;;;;;;;;;;5117437;28;20015;-66
2024/02/10 01:57:19;;;;;;;14.23;10.38;;;;;;;;;;5117941;28;20057;-66
2024/02/10 01:59:47;;;;;;;17.95;12.23;;;;;;;;;;5117581;28;20035;-67
2024/02/10 02:02:14;;;;;;;25.60;18.35;;;;;;;;;;5098930;28;20036;-67
2024/02/10 02:04:40;;;;;;;20.67;14.25;;;;;;;;;;5117471;28;20461;-67
2024/02/10 02:07:08;;;;;;;47.53;33.90;;;;;;;;;;5117163;28;20019;-66
2024/02/10 02:09:34;;;;;;;18.58;13.55;;;;;;;;;;5117382;28;20038;-67
2024/02/10 02:12:03;;;;;;;16.33;10.93;;;;;;;;;;5117250;28;20031;-66
2024/02/10 02:14:29;;;;;;;10.07;7.75;;;;;;;;;;5082568;28;20035;-66
2024/02/10 02:16:55;;;;;;;7.68;6.40;;;;;;;;;;5117222;28;20518;-66
2024/02/10 02:19:20;;;;;;;7.90;6.78;;;;;;;;;;5117231;28;20054;-65
2024/02/10 02:21:47;;;;;;;9.70;7.22;;;;;;;;;;5098632;28;20067;-64
2024/02/10 02:24:12;;;;;;;9.13;6.93;;;;;;;;;;5098657;28;20036;-64
2024/02/10 02:26:37;;;;;;;9.20;7.05;;;;;;;;;;5117103;28;20031;-65
2024/02/10 02:29:07;;;;;;;9.20;6.75;;;;;;;;;;5116742;28;20427;-65
2024/02/10 02:31:33;;;;;;;8.57;6.95;;;;;;;;;;5116620;28;20067;-65
2024/02/10 02:34:02;;;;;;;15.25;12.57;;;;;;;;;;5116641;28;20098;-64
2024/02/10 02:36:28;;;;;;;7.38;6.68;;;;;;;;;;5117183;28;20412;-64
2024/02/10 02:38:53;;;;;;;16.77;12.55;;;;;;;;;;5098306;28;20073;-64
2024/02/10 02:41:18;;;;;;;10.82;9.35;;;;;;;;;;5116492;28;20051;-65
2024/02/10 02:43:45;;;;;;;9.02;7.72;;;;;;;;;;5097745;28;20038;-66
2024/02/10 02:46:13;;;;;;;11.35;8.85;;;;;;;;;;5116162;28;20016;-66
2024/02/10 02:48:39;;;;;;;18.33;16.15;;;;;;;;;;5116649;28;20119;-66
2024/02/10 02:51:05;;;;;;;9.73;8.52;;;;;;;;;;5115716;28;20153;-66
2024/02/10 02:53:31;;;;;;;8.15;6.95;;;;;;;;;;5116269;28;20034;-66
2024/02/10 02:55:58;;;;;;;15.30;11.90;;;;;;;;;;5116806;28;20108;-66
2024/02/10 02:58:23;;;;;;;11.90;10.57;;;;;;;;;;5116157;28;20031;-66
2024/02/10 03:00:49;;;;;;;14.15;11.75;;;;;;;;;;5116188;28;20039;-67
2024/02/10 03:03:15;;;;;;;12.20;7.95;;;;;;;;;;5116658;28;20035;-66
2024/02/10 03:05:40;;;;;;;6.35;5.63;;;;;;;;;;5116596;28;20031;-66
2024/02/10 03:08:06;;;;;;;8.63;6.60;;;;;;;;;;5116046;28;20030;-66
2024/02/10 03:10:32;;;;;;;6.90;5.82;;;;;;;;;;5116395;28;20032;-67
2024/02/10 03:12:57;;;;;;;8.13;6.95;;;;;;;;;;5097709;28;20502;-66
2024/02/10 03:15:24;;;;;;;9.32;7.32;;;;;;;;;;5097598;28;20028;-66
2024/02/10 03:17:49;;;;;;;8.90;7.00;;;;;;;;;;5116094;28;20366;-67
2024/02/10 03:20:21;;;;;;;10.15;7.32;;;;;;;;;;5116040;28;20031;-65
2024/02/10 03:22:58;;;;;;;12.40;9.25;;;;;;;;;;5097587;28;20064;-65
2024/02/10 03:25:26;;;;;;;9.90;7.78;;;;;;;;;;5116226;28;20498;-65
2024/02/10 03:27:52;;;;;;;7.53;6.00;;;;;;;;;;5115846;28;20149;-65
2024/02/10 03:30:17;;;;;;;9.00;7.07;;;;;;;;;;5115507;28;20486;-66
2024/02/10 03:32:43;;;;;;;7.07;6.28;;;;;;;;;;5115608;28;20378;-65
2024/02/10 03:35:09;;;;;;;6.85;6.15;;;;;;;;;;5115750;28;20078;-66
2024/02/10 03:37:35;;;;;;;7.88;7.00;;;;;;;;;;5115406;28;20462;-66
2024/02/10 03:40:11;;;;;;;7.60;6.47;;;;;;;;;;5115355;28;20032;-66
2024/02/10 03:42:36;;;;;;;6.78;5.85;;;;;;;;;;5115636;28;20077;-64
2024/02/10 03:45:02;;;;;;;9.52;7.00;;;;;;;;;;5115513;28;20024;-64
2024/02/10 03:47:27;;;;;;;8.27;7.40;;;;;;;;;;5115203;28;20089;-65
2024/02/10 03:49:53;;;;;;;9.18;7.70;;;;;;;;;;5115634;28;20027;-66
2024/02/10 03:52:18;;;;;;;7.50;6.60;;;;;;;;;;5115676;28;20036;-66
2024/02/10 03:54:44;;;;;;;6.38;5.25;;;;;;;;;;5115067;28;20099;-66
2024/02/10 03:57:09;;;;;;;11.30;5.93;;;;;;;;;;5115300;28;20036;-66
2024/02/10 03:59:39;;;;;;;6.78;4.68;;;;;;;;;;5115540;28;20020;-66
2024/02/10 04:02:05;;;;;;;8.82;5.18;;;;;;;;;;5115219;28;20435;-66
2024/02/10 04:04:31;;;;;;;16.80;7.00;;;;;;;;;;5115436;28;20031;-66
2024/02/10 04:06:56;;;;;;;15.07;7.47;;;;;;;;;;5114847;28;20122;-66
2024/02/10 04:09:24;;;;;;;17.13;7.57;;;;;;;;;;5115363;28;20070;-65
2024/02/10 04:11:50;;;;;;;8.10;5.25;;;;;;;;;;5114976;28;20047;-65
2024/02/10 04:14:20;;;;;;;14.07;7.03;;;;;;;;;;5114738;28;20493;-65
2024/02/10 04:16:51;;;;;;;;;;;;;;;;;;5115095;28;20038;-65
2024/02/10 04:19:16;;;;;;;11.38;5.43;;;;;;;;;;5115182;28;20314;-65
2024/02/10 04:21:42;;;;;;;13.65;6.20;;;;;;;;;;5114579;28;20111;-64
2024/02/10 04:24:07;;;;;;;10.82;6.88;;;;;;;;;;5114541;28;20377;-64
2024/02/10 04:26:32;;;;;;;20.50;8.00;;;;;;;;;;5114768;28;20408;-65
2024/02/10 04:29:00;;;;;;;12.35;7.30;;;;;;;;;;5114459;28;20050;-65
2024/02/10 04:31:29;;;;;;;15.45;8.02;;;;;;;;;;5114313;28;20097;-64
2024/02/10 04:33:54;;;;;;;8.23;5.90;;;;;;;;;;5114539;28;20043;-65
2024/02/10 04:36:20;;;;;;;5.15;4.65;;;;;;;;;;5114678;28;20027;-65
2024/02/10 04:38:47;;;;;;;4.78;4.38;;;;;;;;;;5114326;28;20078;-65
2024/02/10 04:41:13;;;;;;;5.20;4.10;;;;;;;;;;5096179;28;20098;-65
2024/02/10 04:43:38;;;;;;;5.05;4.20;;;;;;;;;;5114545;28;20051;-65
2024/02/10 04:46:03;;;;;;;4.50;4.10;;;;;;;;;;5095961;28;20384;-68
2024/02/10 04:48:30;;;;;;;4.53;4.18;;;;;;;;;;5096167;28;20403;-66
2024/02/10 04:50:57;;;;;;;4.13;3.72;;;;;;;;;;5114109;28;20060;-66
2024/02/10 04:53:25;;;;;;;4.32;3.92;;;;;;;;;;5114451;28;20042;-66
2024/02/10 04:55:50;;;;;;;5.07;4.00;;;;;;;;;;5114757;28;20024;-67
2024/02/10 04:58:16;;;;;;;4.65;4.25;;;;;;;;;;5096619;28;20109;-67
2024/02/10 05:00:41;;;;;;;7.88;5.03;;;;;;;;;;5114344;28;20035;-67
2024/02/10 05:03:06;;;;;;;6.85;5.80;;;;;;;;;;5114107;28;20019;-66
2024/02/10 05:05:32;;;;;;;11.95;6.90;;;;;;;;;;5114047;28;20023;-65
2024/02/10 05:07:58;;;;;;;10.55;7.32;;;;;;;;;;5114039;28;20058;-64
2024/02/10 05:10:24;;;;;;;13.13;9.52;;;;;;;;;;5113937;28;20028;-65
2024/02/10 05:12:50;;;;;;;17.20;11.75;;;;;;;;;;5095730;28;20066;-65
2024/02/10 05:15:19;;;;;;;12.43;8.90;;;;;;;;;;5098163;28;20034;-65
2024/02/10 05:17:49;;;;;;;10.23;7.37;;;;;;;;;;5099999;28;20023;-65
2024/02/10 05:20:21;;;;;;;6.88;5.20;;;;;;;;;;5118669;28;20603;-65
2024/02/10 05:22:47;;;;;;;5.28;4.78;;;;;;;;;;5118080;28;20118;-65
2024/02/10 05:25:13;;;;;;;4.85;4.45;;;;;;;;;;5099777;28;20034;-65
2024/02/10 05:27:39;;;;;;;6.53;4.25;;;;;;;;;;5118247;28;20028;-65
2024/02/10 05:30:05;;;;;;;4.57;4.10;;;;;;;;;;5118139;28;20023;-65
2024/02/10 05:32:30;;;;;;;5.53;4.00;;;;;;;;;;5117850;28;20031;-64
2024/02/10 05:34:56;;;;;;;7.07;5.13;;;;;;;;;;5100340;28;20039;-66
2024/02/10 05:37:21;;;;;;;9.70;6.30;;;;;;;;;;5117711;28;20030;-66
2024/02/10 05:39:46;;;;;;;6.40;5.60;;;;;;;;;;5099556;28;20381;-65
2024/02/10 05:42:13;;;;;;;5.55;4.97;;;;;;;;;;5099727;28;20540;-65
2024/02/10 05:44:40;;;;;;;8.52;5.47;;;;;;;;;;5117652;28;20102;-65
2024/02/10 05:47:06;;;;;;;8.05;5.97;;;;;;;;;;5118144;28;20077;-65
2024/02/10 05:49:34;;;;;;;5.75;4.68;;;;;;;;;;5117830;28;20465;-65
2024/02/10 05:51:59;;;;;;;6.03;5.47;;;;;;;;;;5117427;28;20043;-65
2024/02/10 05:54:29;;;;;;;5.00;4.50;;;;;;;;;;5117736;28;20023;-66
2024/02/10 05:56:54;;;;;;;5.75;4.97;;;;;;;;;;5117618;28;20468;-65
2024/02/10 05:59:19;;;;;;;5.38;4.88;;;;;;;;;;5099194;28;20027;-67
2024/02/10 06:01:47;;;;;;;11.10;5.85;;;;;;;;;;5117302;28;20151;-67
2024/02/10 06:04:12;;;;;;;19.33;7.45;;;;;;;;;;5117514;28;20046;-66
2024/02/10 06:06:40;;;;;;;21.95;9.63;;;;;;;;;;5117511;28;20023;-67
2024/02/10 06:09:06;;;;;;;11.07;6.28;;;;;;;;;;5117158;28;20042;-65
2024/02/10 06:11:33;;;;;;;8.07;6.13;;;;;;;;;;5117611;28;20054;-65
2024/02/10 06:13:58;;;;;;;10.23;9.02;;;;;;;;;;5117078;28;20023;-66
2024/02/10 06:16:24;;;;;;;5.80;5.03;;;;;;;;;;5117316;28;20028;-65
2024/02/10 06:18:49;;;;;;;5.97;5.40;;;;;;;;;;5117286;28;20081;-69
2024/02/10 06:21:15;;;;;;;6.20;4.80;;;;;;;;;;5117229;28;20031;-70
2024/02/10 06:23:42;;;;;;;5.15;4.65;;;;;;;;;;5116878;28;20020;-68
2024/02/10 06:26:10;;;;;;;4.32;3.92;;;;;;;;;;5097726;28;20051;-68
2024/02/10 06:28:36;;;;;;;3.83;3.53;;;;;;;;;;5116802;28;20027;-64
2024/02/10 06:31:01;;;;;;;5.25;3.40;;;;;;;;;;5116693;28;20388;-67
2024/02/10 06:33:28;;;;;;;4.43;4.03;;;;;;;;;;5116896;28;20038;-66
2024/02/10 06:36:00;;;;;;;5.25;4.82;;;;;;;;;;5116613;28;20058;-66
2024/02/10 06:38:32;;;;;;;4.30;3.28;;;;;;;;;;5117179;28;20070;-69
2024/02/10 06:41:01;;;;;;;7.32;6.57;;;;;;;;;;5116559;28;20385;-66
2024/02/10 06:43:26;;;;;;;3.92;3.50;;;;;;;;;;5098290;28;20026;-65
2024/02/10 06:45:51;;;;;;;4.65;4.25;;;;;;;;;;5117002;28;20035;-65
2024/02/10 06:48:18;;;;;;;6.22;4.72;;;;;;;;;;5116449;28;20027;-65
2024/02/10 06:50:44;;;;;;;8.93;7.32;;;;;;;;;;5116836;28;20035;-65
2024/02/10 06:53:10;;;;;;;4.35;3.95;;;;;;;;;;5116328;28;20461;-65
2024/02/10 06:55:36;;;;;;;4.28;3.88;;;;;;;;;;5116557;28;20525;-65
2024/02/10 06:58:02;;;;;;;6.80;6.10;;;;;;;;;;5116789;28;20020;-65
2024/02/10 07:00:27;;;;;;;4.85;4.35;;;;;;;;;;5116475;28;20032;-66
2024/02/10 07:02:56;;;;;;;4.78;4.43;;;;;;;;;;5116099;28;20055;-66
2024/02/10 07:05:22;;;;;;;9.05;7.72;;;;;;;;;;5116616;28;20111;-66
2024/02/10 07:07:48;;;;;;;3.55;3.25;;;;;;;;;;5116338;28;20381;-66
2024/02/10 07:10:21;;;;;;;11.55;10.13;;;;;;;;;;5116178;28;20115;-66
2024/02/10 07:12:47;;;;;;;5.60;4.68;;;;;;;;;;5116472;28;20053;-64
2024/02/10 07:15:14;;;;;;;4.50;4.10;;;;;;;;;;5116167;28;20373;-64
2024/02/10 07:17:46;;;;;;;3.40;3.10;;;;;;;;;;5116133;28;20055;-64
2024/02/10 07:20:18;;;;;;;4.15;3.10;;;;;;;;;;5097791;28;20039;-63
2024/02/10 07:22:45;;;;;;;3.78;3.38;;;;;;;;;;5115618;28;20081;-63
2024/02/10 07:25:11;;;;;;;3.90;3.47;;;;;;;;;;5115551;28;20504;-65
2024/02/10 07:27:37;;;;;;;8.98;7.63;;;;;;;;;;5115615;28;20028;-65
2024/02/10 07:30:03;;;;;;;4.28;3.80;;;;;;;;;;5104992;28;20047;-65
2024/02/10 07:32:29;;;;;;;5.82;4.55;;;;;;;;;;5111794;28;20480;-65
2024/02/10 07:34:55;;;;;;;4.97;4.32;;;;;;;;;;5111756;28;20051;-65
2024/02/10 07:37:21;;;;;;;4.13;3.72;;;;;;;;;;5111443;28;20023;-67
2024/02/10 07:39:50;;;;;;;6.13;4.55;;;;;;;;;;5111708;28;20032;-66
2024/02/10 07:42:16;;;;;;;5.45;4.32;;;;;;;;;;5093569;28;20042;-65
2024/02/10 07:44:42;;;;;;;4.72;3.70;;;;;;;;;;5110655;28;20039;-65
2024/02/10 07:47:10;;;;;;;3.10;2.90;;;;;;;;;;5109412;28;20027;-67
2024/02/10 07:49:35;;;;;;;3.80;3.50;;;;;;;;;;5108764;28;20031;-67
2024/02/10 07:52:01;;;;;;;4.88;3.95;;;;;;;;;;5111245;28;20493;-67
2024/02/10 07:54:27;;;;;;;4.07;3.67;;;;;;;;;;5111304;28;20042;-67
2024/02/10 07:56:54;;;;;;;3.40;3.10;;;;;;;;;;5110820;28;20475;-67
2024/02/10 07:59:20;;;;;;;3.40;3.13;;;;;;;;;;5111262;28;20071;-67
2024/02/10 08:01:46;;;;;;;7.38;5.03;;;;;;;;;;5111213;28;20104;-68
2024/02/10 08:04:12;;;;;;;4.65;3.95;;;;;;;;;;5111190;28;20039;-68
2024/02/10 08:06:37;;;;;;;3.38;3.08;;;;;;;;;;5111157;28;20065;-68
2024/02/10 08:09:03;;;;;;;3.47;3.20;;;;;;;;;;5110617;28;20035;-67
2024/02/10 08:11:29;;;;;;;3.20;2.90;;;;;;;;;;5110871;28;20032;-66
2024/02/10 08:13:55;;;;;;;3.00;2.80;;;;;;;;;;5110849;28;20036;-66
2024/02/10 08:16:21;;;;;;;2.80;2.58;;;;;;;;;;5092517;28;20027;-66
2024/02/10 08:18:49;;;;;;;2.88;2.63;;;;;;;;;;5110471;28;20035;-66
2024/02/10 08:21:17;;;;;;;3.60;2.72;;;;;;;;;;5110747;28;20106;-66
2024/02/10 08:23:46;;;;;;;3.15;2.95;;;;;;;;;;5092481;28;20407;-66
2024/02/10 08:26:11;;;;;;;2.85;2.65;;;;;;;;;;5110741;28;20035;-66
2024/02/10 08:28:37;;;;;;;2.88;2.67;;;;;;;;;;5107667;28;20039;-66
2024/02/10 08:31:04;;;;;;;3.00;2.75;;;;;;;;;;5108766;28;20107;-64
2024/02/10 08:33:33;;;;;;;3.10;2.90;;;;;;;;;;5110464;28;20127;-65
2024/02/10 08:35:58;;;;;;;3.55;3.20;;;;;;;;;;5110612;28;20072;-65
2024/02/10 08:38:24;;;;;;;8.40;7.50;;;;;;;;;;5110294;28;20517;-65
2024/02/10 08:40:49;;;;;;;7.88;6.13;;;;;;;;;;5110299;28;20077;-69
2024/02/10 08:43:15;;;;;;;3.70;3.30;;;;;;;;;;5110474;28;20040;-69
2024/02/10 08:45:40;;;;;;;3.88;3.58;;;;;;;;;;5110267;28;20026;-68
2024/02/10 08:48:10;;;;;;;10.40;7.25;;;;;;;;;;5091679;28;20050;-69
2024/02/10 08:50:35;;;;;;;15.07;10.75;;;;;;;;;;5090970;28;20131;-67
2024/02/10 08:53:01;;;;;;;12.68;9.90;;;;;;;;;;5110150;28;20107;-67
2024/02/10 08:55:26;;;;;;;13.85;9.02;;;;;;;;;;5110561;28;20023;-67
2024/02/10 08:57:55;;;;;;;7.45;6.30;;;;;;;;;;5110229;28;20469;-66
2024/02/10 09:00:21;;;;;;;10.68;9.57;;;;;;;;;;5110593;28;20073;-66
2024/02/10 09:02:46;;;;;;;7.70;6.90;;;;;;;;;;5110293;28;20035;-66
2024/02/10 09:05:14;;;;;;;7.15;6.43;;;;;;;;;;5109886;28;20041;-66
2024/02/10 09:07:39;;;;;;;11.45;7.75;;;;;;;;;;5110336;28;20472;-68
2024/02/10 09:10:05;;;;;;;6.78;5.78;;;;;;;;;;5091770;28;20035;-65
2024/02/10 09:12:30;;;;;;;3.78;3.47;;;;;;;;;;5110633;28;20027;-65
2024/02/10 09:14:56;;;;;;;2.95;2.75;;;;;;;;;;5110241;28;20024;-65
2024/02/10 09:17:23;;;;;;;2.92;2.72;;;;;;;;;;5110322;28;20500;-65
2024/02/10 09:19:49;;;;;;;4.15;3.85;;;;;;;;;;5109878;28;20050;-66
2024/02/10 09:22:14;;;;;;;5.38;3.83;;;;;;;;;;5109909;28;20072;-66
2024/02/10 09:24:39;;;;;;;4.95;4.43;;;;;;;;;;5109988;28;20484;-66
2024/02/10 09:27:08;;;;;;;5.45;4.95;;;;;;;;;;5108292;28;20027;-66
2024/02/10 09:29:34;;;;;;;4.75;4.35;;;;;;;;;;5089501;28;20116;-66
2024/02/10 09:32:00;;;;;;;3.17;2.78;;;;;;;;;;5107921;28;20117;-67
2024/02/10 09:34:27;;;;;;;2.50;2.25;;;;;;;;;;5107817;28;20051;-67
2024/02/10 09:36:52;;;;;;;3.17;2.65;;;;;;;;;;5108234;28;20035;-67
2024/02/10 09:39:20;;;;;;;3.42;2.63;;;;;;;;;;5107631;28;20030;-67
2024/02/10 09:41:46;;;;;;;3.63;2.53;;;;;;;;;;5107821;28;20066;-67
2024/02/10 09:44:14;;;;;;;5.70;4.10;;;;;;;;;;5107758;28;20081;-67
2024/02/10 09:46:39;;;;;;;11.93;5.28;;;;;;;;;;5108766;28;20074;-66
2024/02/10 09:49:09;;;;;;;5.13;4.35;;;;;;;;;;5108139;28;20110;-66
2024/02/10 09:51:44;;;;;;;3.25;3.00;;;;;;;;;;5107516;28;20048;-66
2024/02/10 09:54:13;;;;;;;8.30;5.93;;;;;;;;;;5090213;28;20844;-67
2024/02/10 09:56:39;;;;;;;4.65;3.40;;;;;;;;;;5090868;28;20048;-67
2024/02/10 09:59:10;;;;;;;6.88;4.93;;;;;;;;;;5109373;28;20066;-66
2024/02/10 10:01:37;;;;;;;5.03;4.03;;;;;;;;;;5112791;28;20063;-66
2024/02/10 10:04:03;;;;;;;3.35;3.08;;;;;;;;;;5113379;28;20050;-66
2024/02/10 10:06:29;;;;;;;4.13;2.83;;;;;;;;;;5096390;28;20035;-66
2024/02/10 10:08:57;;;;;;;4.05;3.63;;;;;;;;;;5078112;28;20500;-66
2024/02/10 10:11:23;;;;;;;4.07;3.05;;;;;;;;;;5113724;28;20036;-66
2024/02/10 10:13:48;;;;;;;3.30;3.00;;;;;;;;;;5113865;28;20080;-67
2024/02/10 10:16:14;;;;;;;3.08;2.47;;;;;;;;;;5115424;28;20070;-66
2024/02/10 10:18:41;;;;;;;2.88;2.47;;;;;;;;;;5114894;28;20035;-67
2024/02/10 10:21:12;;;;;;;10.65;7.85;;;;;;;;;;5112448;28;20043;-66
2024/02/10 10:23:37;;;;;;;;;;;;;;;;;;5113643;28;20084;-66
2024/02/10 10:26:03;;;;;;;5.13;4.10;;;;;;;;;;5113681;28;19925;-68
2024/02/10 10:28:30;;;;;;;3.13;2.55;;;;;;;;;;5112906;28;20132;-68
2024/02/10 10:30:57;;;;;;;2.72;2.53;;;;;;;;;;5095065;28;20064;-68
2024/02/10 10:33:22;;;;;;;3.97;2.47;;;;;;;;;;5114689;28;20039;-70
2024/02/10 10:35:48;;;;;;;2.67;2.47;;;;;;;;;;5113978;28;20389;-68
2024/02/10 10:38:16;;;;;;;3.88;2.50;;;;;;;;;;5112836;28;20462;-70
2024/02/10 10:40:41;;;;;;;6.35;5.03;;;;;;;;;;5112884;28;20027;-71
2024/02/10 10:43:10;;;;;;;3.80;3.50;;;;;;;;;;5113511;28;20043;-70
2024/02/10 10:45:36;;;;;;;4.60;2.75;;;;;;;;;;5113637;28;20027;-69
2024/02/10 10:48:02;;;;;;;4.47;2.95;;;;;;;;;;5112151;28;20036;-70
2024/02/10 10:50:29;;;;;;;16.67;7.93;;;;;;;;;;5093516;28;20067;-70
2024/02/10 10:53:05;;;;;;;11.02;6.15;;;;;;;;;;5094150;28;20027;-62
2024/02/10 10:55:31;;;;;;;6.97;5.65;;;;;;;;;;5112416;28;20739;-59
2024/02/10 10:57:57;;;;;;;11.00;7.70;;;;;;;;;;5094268;28;20024;-74
2024/02/10 11:00:25;;;;;;;6.20;5.03;;;;;;;;;;5077753;28;20028;-66
2024/02/10 11:02:52;;;;;;;4.72;3.70;;;;;;;;;;5112763;28;20065;-67
2024/02/10 11:05:19;;;;;;;2.70;2.30;;;;;;;;;;5112304;28;20036;-66
2024/02/10 11:07:49;;;;;;;3.70;2.42;;;;;;;;;;5112270;28;20030;-66
2024/02/10 11:10:33;;;;;;;4.93;3.22;;;;;;;;;;5111660;28;20043;-66
2024/02/10 11:13:00;;;;;;;4.72;3.25;;;;;;;;;;5093668;28;20031;-66
2024/02/10 11:15:26;;;;;;;2.72;2.53;;;;;;;;;;5094206;28;20042;-66
2024/02/10 11:18:00;;;;;;;3.67;3.35;;;;;;;;;;5112123;28;20027;-66
2024/02/10 11:20:30;;;;;;;4.40;2.53;;;;;;;;;;5093013;28;20035;-68
2024/02/10 11:22:57;;;;;;;4.63;2.63;;;;;;;;;;5111228;28;20031;-68
2024/02/10 11:25:25;;;;;;;3.55;3.15;;;;;;;;;;5111538;28;20297;-68
2024/02/10 11:27:55;;;;;;;5.32;3.08;;;;;;;;;;5108990;28;20613;-64
2024/02/10 11:30:22;;;;;;;;;;;;;;;;;;5112133;28;20186;-66
2024/02/10 11:32:48;;;;;;;2.95;2.40;;;;;;;;;;5112071;28;19907;-67
2024/02/10 11:35:14;;;;;;;3.15;2.42;;;;;;;;;;5093910;28;20032;-67
2024/02/10 11:37:41;;;;;;;5.22;2.60;;;;;;;;;;5112767;28;20473;-67
2024/02/10 11:40:10;;;;;;;3.45;2.35;;;;;;;;;;5112463;28;20486;-68
2024/02/10 11:42:36;;;;;;;6.97;3.17;;;;;;;;;;5112691;28;20098;-67
2024/02/10 11:45:03;;;;;;;3.78;2.25;;;;;;;;;;5112898;28;20610;-67
2024/02/10 11:47:30;;;;;;;5.68;3.15;;;;;;;;;;5094283;28;20020;-67
2024/02/10 11:49:55;;;;;;;5.60;2.90;;;;;;;;;;5112565;28;20513;-67
2024/02/10 11:52:22;;;;;;;5.80;3.42;;;;;;;;;;5112345;28;20223;-67
2024/02/10 11:54:48;;;;;;;4.88;3.72;;;;;;;;;;5112662;28;20019;-67
2024/02/10 11:57:14;;;;;;;5.82;3.42;;;;;;;;;;5112470;28;20041;-67
2024/02/10 11:59:40;;;;;;;5.97;3.97;;;;;;;;;;5111929;28;20024;-66
2024/02/10 12:02:07;;;;;;;3.78;2.78;;;;;;;;;;5109981;28;20036;-66
2024/02/10 12:04:33;;;;;;;4.22;3.30;;;;;;;;;;5091408;28;20128;-66
2024/02/10 12:06:58;;;;;;;4.72;3.63;;;;;;;;;;5092492;28;20071;-66
2024/02/10 12:09:25;;;;;;;4.22;3.58;;;;;;;;;;5091280;28;20466;-66
2024/02/10 12:11:57;;;;;;;4.63;3.42;;;;;;;;;;5111481;28;20091;-66
2024/02/10 12:14:23;;;;;;;7.47;3.65;;;;;;;;;;5111710;28;20038;-66
2024/02/10 12:16:49;;;;;;;4.13;2.45;;;;;;;;;;5093026;28;20028;-66
2024/02/10 12:19:14;;;;;;;4.43;2.65;;;;;;;;;;5111224;28;20469;-66
2024/02/10 12:21:41;;;;;;;3.65;2.85;;;;;;;;;;5110780;28;20073;-65
2024/02/10 12:24:11;;;;;;;3.92;2.63;;;;;;;;;;5110461;28;20110;-66
2024/02/10 12:26:37;;;;;;;4.88;2.47;;;;;;;;;;5111088;28;20039;-66
2024/02/10 12:29:02;;;;;;;2.95;2.63;;;;;;;;;;5109369;28;20039;-66
2024/02/10 12:31:28;;;;;;;3.83;2.53;;;;;;;;;;5110302;28;20046;-67
2024/02/10 12:33:55;;;;;;;4.22;2.63;;;;;;;;;;5110384;28;20036;-66
2024/02/10 12:36:24;;;;;;;4.55;3.28;;;;;;;;;;5110545;28;20495;-66
2024/02/10 12:38:50;;;;;;;3.33;2.88;;;;;;;;;;5110444;28;20131;-66
2024/02/10 12:41:17;;;;;;;4.90;4.43;;;;;;;;;;5110371;28;20077;-66
2024/02/10 12:43:43;;;;;;;4.70;4.10;;;;;;;;;;5092178;28;20513;-66
2024/02/10 12:46:10;;;;;;;6.65;6.00;;;;;;;;;;5110357;28;20504;-67
2024/02/10 12:48:36;;;;;;;5.13;3.92;;;;;;;;;;5091786;28;20023;-67
2024/02/10 12:51:02;;;;;;;5.80;5.15;;;;;;;;;;5109995;28;20119;-67
2024/02/10 12:53:28;;;;;;;4.50;4.07;;;;;;;;;;5110627;28;20122;-66
2024/02/10 12:55:54;;;;;;;5.60;3.97;;;;;;;;;;5111077;28;20164;-65
2024/02/10 12:58:19;;;;;;;4.53;3.58;;;;;;;;;;5110630;28;20473;-65
2024/02/10 13:00:45;;;;;;;4.88;3.40;;;;;;;;;;5110381;28;20078;-65
2024/02/10 13:03:11;;;;;;;5.53;3.80;;;;;;;;;;5110825;28;20049;-66
2024/02/10 13:05:36;;;;;;;7.18;4.10;;;;;;;;;;5092321;28;20481;-66
2024/02/10 13:08:02;;;;;;;6.82;5.45;;;;;;;;;;5092666;28;20028;-66
2024/02/10 13:10:28;;;;;;;8.93;7.15;;;;;;;;;;5092374;28;20038;-66
2024/02/10 13:12:58;;;;;;;11.10;7.55;;;;;;;;;;5110829;28;20066;-65
2024/02/10 13:15:23;;;;;;;7.93;5.05;;;;;;;;;;5110699;28;20059;-66
2024/02/10 13:17:50;;;;;;;14.18;7.88;;;;;;;;;;5088834;28;20067;-60
2024/02/10 13:20:19;;;;;;;7.30;4.97;;;;;;;;;;5090557;28;20032;-60
2024/02/10 13:22:45;;;;;;;8.85;7.25;;;;;;;;;;5090427;28;20103;-61
2024/02/10 13:25:10;;;;;;;7.57;4.82;;;;;;;;;;5090872;28;20039;-66
2024/02/10 13:27:36;;;;;;;5.55;3.55;;;;;;;;;;5090526;28;20043;-64
2024/02/10 13:30:02;;;;;;;7.57;4.82;;;;;;;;;;5090392;28;20028;-62
2024/02/10 13:32:30;;;;;;;6.38;3.40;;;;;;;;;;5090153;28;20039;-60
2024/02/10 13:34:56;;;;;;;4.43;3.85;;;;;;;;;;5089298;28;20132;-68
2024/02/10 14:02:54;;;;;;;4.00;2.90;;;;;;;;;;5094024;28;20446;-69
2024/02/10 14:07:49;;;;;;;;;;;;;;;;;;5094489;28;20081;-69
2024/02/10 14:12:40;;;;;;;5.97;3.45;;;;;;;;;;5093311;28;20039;-70
2024/02/10 14:15:16;;;;;;;4.60;3.35;;;;;;;;;;5093548;28;20024;-70
2024/02/10 14:17:45;;;;;;;3.97;3.03;;;;;;;;;;5093738;28;20104;-61
2024/02/10 14:20:19;;;;;;;7.22;3.92;;;;;;;;;;5093647;28;20043;-59
2024/02/10 14:22:46;;;;;;;16.80;9.25;;;;;;;;;;5093524;28;20031;-61
2024/02/10 14:25:23;;;;;;;61.58;23.10;;;;;;;;;;5093632;28;20036;-61
2024/02/10 14:27:54;;;;;;;79.82;31.27;;;;;;;;;;5093696;28;20036;-61
2024/02/10 14:30:31;;;;;;;58.03;25.42;;;;;;;;;;5093429;28;20049;-61
2024/02/10 14:33:00;;;;;;;32.35;18.05;;;;;;;;;;5093878;28;20106;-62
2024/02/10 14:35:44;;;;;;;33.55;17.05;;;;;;;;;;5093541;28;20020;-61
2024/02/10 14:38:35;;;;;;;21.27;11.50;;;;;;;;;;5092999;28;20028;-58
2024/02/10 14:41:02;;;;;;;20.77;10.52;;;;;;;;;;5093366;28;20036;-58
2024/02/10 14:43:29;;;;;;;28.40;14.02;;;;;;;;;;5093303;28;20035;-58
2024/02/10 14:45:57;;;;;;;34.92;17.92;;;;;;;;;;5092909;28;20040;-59
2024/02/10 14:48:28;;;;;;;25.35;13.57;;;;;;;;;;5091926;28;20078;-59
2024/02/10 14:50:54;;;;;;;32.20;14.52;;;;;;;;;;5092689;28;20489;-60
2024/02/10 14:53:31;;;;;;;36.85;18.85;;;;;;;;;;5093000;28;20035;-59
2024/02/10 14:56:10;;;;;;;27.05;13.63;;;;;;;;;;5092445;28;20043;-59
2024/02/10 14:58:36;;;;;;;16.77;10.25;;;;;;;;;;5090864;28;20036;-60
2024/02/10 15:01:04;;;;;;;14.13;9.32;;;;;;;;;;5092156;28;20028;-60
2024/02/10 15:03:36;;;;;;;13.73;8.00;;;;;;;;;;5091959;28;20067;-60
2024/02/10 15:06:05;;;;;;;14.77;8.60;;;;;;;;;;5091498;28;20115;-60